Flugplatz Fassberg Airport

Bericht für ETHS

vom 28.02. um 02:47 UTC

Wind 8 kt aus 280°

Sichtweite 5000 m

feuchter Dunst

aufgelockert bewölkt in 200 ft

aufgebrochene Bewölkung in 900 ft

Temperatur 1.0°C

Taupunkt 0.0°C

Luftfeuchtigkeit 93%

Luftdruck 1007 hPa

ETHS 280247Z 28008KT 5000 BR SCT002 BKN009 01/00 Q1007 GRN
Keine Prognose (TAF) verfügbar.
Impressum